Terminal Aerodrome Forecast
Issued by NWS Sterling, VA

Current Version | Previous Version | Graphics & Text | Print | Product List | Glossary On
Versions: 1 2 3 4 5 6 7 8 9 10 11 12 13 14 15 16 17 18 19 20 21 22 23 24
000
FTUS41 KLWX 210500
TAFIAD
TAF
KIAD 210535Z 2106/2212 00000KT P6SM SKC
     FM210900 00000KT 3SM BR SCT250
     FM211300 00000KT P6SM SCT250
     FM211700 25006KT P6SM VCTS BKN060CB
     FM212100 24008KT P6SM BKN250
     FM220600 31010KT P6SM BKN250=

USA.gov is the U.S. government's official web portal to all federal, state and local government web resources and services.